Accueil
METAR-TAF:

METAR-TAF

Aéroports :

Aéroport régional de Jizan

Jizan, Arabie saoudite

latitude: 16-54N, longitude: 042-35E, altitude: 6 m

Observation

Le bulletin a été fait il y a 32 minutes, à 07:00 UTC
Vent calme
Température 29°C
Humidité 66%
Pression 1017 hPa
Visibilité 10 km ou plus
Quelques nuages à une hauteur de 3000 ft

METAR: OEGN 240700Z 00000KT 9999 FEW030 29/22 Q1017 NOSIG

Heure: 10:32 (07:32 UTC)

Prévision

Le bulletin a été fait il y a 8 heures et 32 minutes, à 23:00 UTC
Prévision valable du 24 à 00 UTC au 25 à 06 UTC
Vent 3 kt de direction variable
Visibilité 10 km ou plus
Quelques nuages à une hauteur de 3000 ft
Evoluant progressivement
du 24 à 06 UTC au 24 à 08 UTC
Vent 6 kt de nord/nord-est
Evoluant progressivement
du 24 à 12 UTC au 24 à 14 UTC
Vent 10 kt de ouest/sud-ouest

TAF: OEGN 232300Z 2400/2506 VRB03KT 9999 FEW030 BECMG 2406/2408 02006KT BECMG 2412/2414 24010KT

Observations et prévisions météorologiques de plus de 4000 aéroports (messages METAR et TAF).

Les stations disponibles sont représentées par des disques jaunes et rouges sur la carte.

Passer la souris dessus pour voir le nom de la station.

Cliquer dessus pour voir les observations et prévisions météorologiques.

Pour changer de carte: cliquez sur les boutons verts avec une croix noire pour zoomer, sur le bouton vert avec un tiret pour effectuer un zoom arrière, ou sur les flèches vertes pour les cartes adjacentes.


METAR-TAF: